Time;durP1;ratioP1;P1;durP2;ratioP2;P2;SDS_P1;SDS_P2;PMS_P1;PMS_P2;Temp;Humidity;BMP_temperature;BMP_pressure;BME280_temperature;BME280_humidity;BME280_pressure;Samples;Min_cycle;Max_cycle;Signal;HPM_P1;HPM_P2
2024/02/02 00:02:21;;;;;;;28.30;4.50;;;;;;;9.24;62.14;99467.08;67923;1275;1016367;-71
2024/02/02 00:05:23;;;;;;;16.80;3.10;;;;;;;9.09;64.78;99480.31;67946;1275;1016386;-71
2024/02/02 00:08:26;;;;;;;21.80;3.70;;;;;;;8.90;67.33;99486.02;67888;1275;1016235;-72
2024/02/02 00:11:29;;;;;;;22.10;4.10;;;;;;;8.82;68.18;99480.42;67887;1275;1016243;-71
2024/02/02 00:14:31;;;;;;;22.70;4.00;;;;;;;8.83;68.82;99481.27;67923;1275;1016880;-71
2024/02/02 00:17:34;;;;;;;23.40;3.60;;;;;;;8.77;68.61;99487.25;67947;1275;1016304;-70
2024/02/02 00:20:36;;;;;;;23.80;3.70;;;;;;;8.76;69.56;99482.77;67934;1275;1016130;-71
2024/02/02 00:23:39;;;;;;;20.60;4.60;;;;;;;8.93;68.03;99482.41;67898;1275;1016485;-70
2024/02/02 00:26:41;;;;;;;25.10;4.80;;;;;;;8.89;68.39;99481.88;67927;1275;1016466;-70
2024/02/02 00:29:45;;;;;;;23.10;3.60;;;;;;;8.86;68.37;99484.10;67900;1275;1016456;-70
2024/02/02 00:32:48;;;;;;;21.60;4.30;;;;;;;8.87;67.45;99496.27;67873;1275;1016310;-71
2024/02/02 00:35:50;;;;;;;27.20;4.20;;;;;;;8.87;68.15;99492.61;67901;1275;1015701;-70
2024/02/02 00:38:53;;;;;;;23.50;4.00;;;;;;;8.88;68.83;99504.79;67914;1275;1016613;-70
2024/02/02 00:41:56;;;;;;;21.50;4.30;;;;;;;9.03;67.63;99502.36;67960;1275;1016593;-71
2024/02/02 00:44:59;;;;;;;20.10;4.00;;;;;;;9.00;67.88;99505.30;67933;1275;1015980;-71
2024/02/02 00:48:02;;;;;;;24.70;3.80;;;;;;;8.84;68.99;99505.64;67902;1275;1016452;-71
2024/02/02 00:51:05;;;;;;;25.80;3.70;;;;;;;8.76;68.80;99493.43;67876;1275;1016608;-71
2024/02/02 00:54:07;;;;;;;22.40;3.70;;;;;;;8.74;69.10;99500.15;67927;1275;1016470;-71
2024/02/02 00:57:11;;;;;;;24.00;4.50;;;;;;;8.67;69.56;99503.90;67932;1275;1016485;-71
2024/02/02 01:00:14;;;;;;;24.20;4.00;;;;;;;8.67;69.77;99506.70;67951;1275;1016224;-71
2024/02/02 01:03:16;;;;;;;24.10;4.50;;;;;;;8.70;70.01;99506.59;67901;1275;1015842;-70
2024/02/02 01:06:19;;;;;;;25.20;4.10;;;;;;;8.78;69.36;99507.27;67927;1275;1016400;-71
2024/02/02 01:09:22;;;;;;;23.10;4.20;;;;;;;8.72;69.74;99505.14;67919;1275;1016472;-72
2024/02/02 01:12:24;;;;;;;22.90;4.20;;;;;;;8.72;69.68;99512.41;67856;1275;1016328;-71
2024/02/02 01:15:27;;;;;;;23.70;4.60;;;;;;;8.71;69.67;99517.71;67877;1275;1016077;-71
2024/02/02 01:18:29;;;;;;;21.20;4.20;;;;;;;8.68;69.83;99519.56;67941;1275;1016462;-71
2024/02/02 01:21:33;;;;;;;23.60;5.10;;;;;;;8.67;69.56;99518.56;67956;1275;1016394;-70
2024/02/02 01:24:36;;;;;;;24.50;3.70;;;;;;;8.65;69.33;99523.54;67942;1275;1018241;-71
2024/02/02 01:27:38;;;;;;;20.10;3.80;;;;;;;8.68;69.11;99522.36;67921;1275;1016136;-71
2024/02/02 01:30:41;;;;;;;;;;;;;;;8.59;69.20;99519.93;67900;1276;1016473;-68
2024/02/02 01:33:43;;;;;;;21.90;4.50;;;;;;;8.70;68.28;99526.63;67938;1275;1016303;-71
2024/02/02 01:36:46;;;;;;;20.50;3.80;;;;;;;8.60;68.34;99531.77;67942;1276;1016298;-71
2024/02/02 01:39:48;;;;;;;22.30;3.90;;;;;;;8.46;69.45;99536.16;67920;1275;1016119;-71
2024/02/02 01:42:51;;;;;;;19.60;3.40;;;;;;;8.51;68.85;99534.92;67895;1275;1016227;-69
2024/02/02 01:45:53;;;;;;;20.80;4.30;;;;;;;8.41;68.74;99532.17;67914;1275;1016007;-72
2024/02/02 01:48:57;;;;;;;22.20;4.40;;;;;;;8.24;69.18;99536.48;67918;1275;1016477;-71
2024/02/02 01:52:00;;;;;;;23.20;4.00;;;;;;;8.25;69.16;99538.55;67938;1275;1015915;-71
2024/02/02 01:55:02;;;;;;;22.80;3.70;;;;;;;8.26;68.21;99537.96;67936;1275;1018679;-72
2024/02/02 01:58:05;;;;;;;23.80;4.10;;;;;;;8.10;69.22;99544.20;67879;1275;1016478;-71
2024/02/02 02:01:08;;;;;;;21.10;3.20;;;;;;;8.24;68.06;99542.95;67909;1275;1016897;-71
2024/02/02 02:04:10;;;;;;;20.60;3.30;;;;;;;8.17;68.29;99544.61;67933;1275;1016281;-71
2024/02/02 02:07:13;;;;;;;21.30;3.80;;;;;;;8.25;67.77;99539.23;67945;1275;1016485;-71
2024/02/02 02:10:15;;;;;;;22.70;3.90;;;;;;;8.30;67.98;99534.31;67902;1275;1016481;-71
2024/02/02 02:13:18;;;;;;;21.10;3.30;;;;;;;8.29;67.38;99534.71;67889;1275;1016462;-71
2024/02/02 02:16:20;;;;;;;22.20;3.70;;;;;;;8.39;66.60;99543.23;67941;1275;1016295;-71
2024/02/02 02:19:23;;;;;;;18.10;3.10;;;;;;;8.47;66.39;99542.21;67951;1275;1016488;-70
2024/02/02 02:22:25;;;;;;;21.10;3.30;;;;;;;8.39;67.14;99540.77;67901;1275;1016247;-71
2024/02/02 02:25:28;;;;;;;19.40;2.80;;;;;;;8.42;67.45;99544.66;67888;1275;1016507;-71
2024/02/02 02:28:30;;;;;;;18.80;3.30;;;;;;;8.42;67.33;99546.26;67950;1275;1016918;-71
2024/02/02 02:31:33;;;;;;;18.80;3.40;;;;;;;8.53;66.68;99549.80;67957;1275;1016430;-71
2024/02/02 02:34:36;;;;;;;;;;;;;;;8.71;65.97;99549.27;67910;1275;1016542;-71
2024/02/02 02:37:39;;;;;;;14.80;2.90;;;;;;;8.59;66.32;99557.42;67922;1275;1016543;-71
2024/02/02 02:40:41;;;;;;;21.00;3.10;;;;;;;8.39;67.55;99558.38;67932;1275;1016414;-72
2024/02/02 02:43:44;;;;;;;18.10;3.10;;;;;;;8.44;67.51;99555.05;67891;1275;1016453;-71
2024/02/02 02:46:47;;;;;;;19.70;3.60;;;;;;;8.59;66.87;99553.08;67912;1275;1018510;-71
2024/02/02 02:49:50;;;;;;;24.30;3.20;;;;;;;8.62;66.35;99554.85;67910;1275;1016850;-71
2024/02/02 02:52:52;;;;;;;20.50;2.90;;;;;;;8.45;67.08;99556.77;67909;1275;1016201;-69
2024/02/02 02:55:55;;;;;;;22.40;3.40;;;;;;;8.38;66.53;99552.14;67942;1275;1016316;-70
2024/02/02 02:58:57;;;;;;;;;;;;;;;8.32;66.68;99555.84;67973;1275;1016101;-71
2024/02/02 03:02:00;;;;;;;16.40;2.60;;;;;;;8.36;65.39;99558.52;67915;1275;1016379;-71
2024/02/02 03:05:03;;;;;;;13.70;2.40;;;;;;;8.56;64.86;99559.45;67897;1275;1018510;-69
2024/02/02 03:08:06;;;;;;;21.30;3.40;;;;;;;8.45;65.23;99559.90;67902;1275;1016241;-70
2024/02/02 03:11:08;;;;;;;16.90;2.80;;;;;;;8.44;65.93;99561.17;67904;1275;1016444;-71
2024/02/02 03:14:11;;;;;;;22.60;3.50;;;;;;;8.46;65.46;99560.92;67941;1275;1018417;-71
2024/02/02 03:17:13;;;;;;;21.90;3.60;;;;;;;8.58;65.22;99558.68;67926;1275;1016466;-70
2024/02/02 03:20:16;;;;;;;22.50;3.20;;;;;;;8.55;65.17;99560.36;67900;1275;1016488;-71
2024/02/02 03:23:18;;;;;;;18.10;3.40;;;;;;;8.65;64.92;99563.63;67899;1275;1016149;-72
2024/02/02 03:26:21;;;;;;;21.00;3.40;;;;;;;8.57;65.75;99568.14;67942;1275;1016349;-71
2024/02/02 03:29:24;;;;;;;15.00;3.10;;;;;;;8.52;66.19;99582.96;67914;1275;1016401;-71
2024/02/02 03:32:26;;;;;;;26.40;3.90;;;;;;;8.52;66.40;99578.13;67886;1275;1016448;-71
2024/02/02 03:35:29;;;;;;;23.40;3.70;;;;;;;8.56;66.58;99575.35;67939;1275;1017204;-71
2024/02/02 03:38:31;;;;;;;23.40;3.70;;;;;;;8.49;66.84;99570.02;67891;1275;1016401;-72
2024/02/02 03:41:34;;;;;;;23.40;3.30;;;;;;;8.52;67.04;99565.39;67898;1275;1016484;-71
2024/02/02 03:44:37;;;;;;;21.50;3.00;;;;;;;8.56;66.87;99572.89;67913;1275;1018737;-72
2024/02/02 03:47:39;;;;;;;25.00;4.20;;;;;;;8.59;67.17;99575.39;67932;1275;1016463;-71
2024/02/02 03:50:42;;;;;;;19.70;3.60;;;;;;;8.75;66.34;99576.48;67998;1275;1018926;-71
2024/02/02 03:53:44;;;;;;;21.00;3.80;;;;;;;8.77;66.09;99577.45;67998;1275;1016298;-71
2024/02/02 03:56:47;;;;;;;19.30;3.40;;;;;;;8.62;66.75;99578.23;67976;1275;1016340;-71
2024/02/02 03:59:49;;;;;;;19.40;3.40;;;;;;;8.60;66.69;99578.84;67958;1275;1018579;-72
2024/02/02 04:02:53;;;;;;;23.50;3.70;;;;;;;8.61;66.70;99579.65;68024;1275;1016203;-72
2024/02/02 04:05:55;;;;;;;27.00;3.50;;;;;;;8.60;66.33;99579.51;67952;1275;1016296;-71
2024/02/02 04:08:58;;;;;;;25.30;3.50;;;;;;;8.61;66.38;99574.79;67996;1275;1016427;-71
2024/02/02 04:12:00;;;;;;;22.00;3.60;;;;;;;8.64;66.12;99579.53;67988;1275;1018961;-71
2024/02/02 04:15:03;;;;;;;23.80;3.70;;;;;;;8.60;65.70;99580.20;67951;1275;1016109;-70
2024/02/02 04:18:06;;;;;;;;;;;;;;;8.63;65.56;99587.23;67990;1275;1016154;-71
2024/02/02 04:21:08;;;;;;;23.50;4.00;;;;;;;8.63;65.39;99586.04;67986;1275;1016475;-71
2024/02/02 04:24:11;;;;;;;20.70;3.10;;;;;;;8.61;65.43;99584.17;67985;1275;1016122;-72
2024/02/02 04:27:13;;;;;;;23.40;4.40;;;;;;;8.70;64.76;99592.39;67929;1275;1015883;-71
2024/02/02 04:30:17;;;;;;;25.10;3.30;;;;;;;8.79;64.18;99585.54;68013;1275;1017057;-72
2024/02/02 04:33:19;;;;;;;25.90;3.80;;;;;;;8.81;64.03;99594.36;67985;1275;1015758;-71
2024/02/02 04:36:22;;;;;;;21.70;3.40;;;;;;;8.74;64.22;99603.70;67975;1275;1016408;-72
2024/02/02 04:39:24;;;;;;;20.00;3.50;;;;;;;8.68;64.34;99603.44;68026;1275;1016200;-71
2024/02/02 04:42:27;;;;;;;27.20;4.40;;;;;;;8.67;64.31;99605.20;67946;1275;1016902;-71
2024/02/02 04:45:29;;;;;;;20.60;3.60;;;;;;;8.55;64.37;99607.42;67945;1275;1016430;-71
2024/02/02 04:48:32;;;;;;;19.50;3.30;;;;;;;8.64;63.90;99606.71;67977;1275;1016448;-71
2024/02/02 04:51:35;;;;;;;26.10;3.60;;;;;;;8.65;63.81;99612.63;67997;1275;1017050;-72
2024/02/02 04:54:37;;;;;;;;;;;;;;;8.52;64.13;99603.55;67940;1275;1016288;-71
2024/02/02 04:57:40;;;;;;;20.90;3.70;;;;;;;8.48;64.65;99605.28;67929;1275;1018185;-69
2024/02/02 05:00:43;;;;;;;18.30;3.50;;;;;;;8.53;64.17;99610.16;67938;1275;1016392;-70
2024/02/02 05:03:46;;;;;;;23.20;3.30;;;;;;;8.46;64.26;99612.50;67942;1275;1016484;-71
2024/02/02 05:06:48;;;;;;;21.10;3.00;;;;;;;8.55;63.92;99607.63;67973;1275;1016343;-72
2024/02/02 05:09:51;;;;;;;26.10;3.60;;;;;;;8.53;63.95;99612.41;68013;1275;1016477;-71
2024/02/02 05:12:54;;;;;;;24.90;4.20;;;;;;;8.49;64.23;99610.45;67942;1275;1016546;-69
2024/02/02 05:15:56;;;;;;;28.70;3.70;;;;;;;8.45;64.29;99620.03;67971;1275;1016590;-71
2024/02/02 05:18:59;;;;;;;27.50;4.80;;;;;;;8.38;64.68;99623.27;67952;1275;1016282;-63
2024/02/02 05:22:01;;;;;;;20.90;3.80;;;;;;;8.39;64.74;99615.54;67965;1275;1015898;-70
2024/02/02 05:25:04;;;;;;;20.50;3.50;;;;;;;8.35;64.84;99617.06;67955;1275;1016461;-70
2024/02/02 05:28:07;;;;;;;28.70;4.00;;;;;;;8.38;64.70;99626.39;67967;1275;1016459;-71
2024/02/02 05:31:12;;;;;;;24.50;3.80;;;;;;;8.36;64.62;99625.05;67979;1275;1016288;-71
2024/02/02 05:34:15;;;;;;;22.90;4.20;;;;;;;8.33;65.06;99633.17;68000;1274;1016652;-71
2024/02/02 05:37:17;;;;;;;20.30;3.60;;;;;;;8.38;64.54;99635.98;68003;1275;1016687;-72
2024/02/02 05:40:20;;;;;;;23.70;4.30;;;;;;;8.36;64.46;99632.20;67948;1275;1016417;-71
2024/02/02 05:43:22;;;;;;;26.80;3.90;;;;;;;8.57;63.68;99631.95;67977;1275;1015724;-71
2024/02/02 05:46:25;;;;;;;22.80;3.90;;;;;;;8.54;63.40;99635.90;65411;1275;5383968;-71
2024/02/02 05:49:27;;;;;;;25.80;4.30;;;;;;;8.38;64.08;99626.36;67983;1275;1017694;-71
2024/02/02 05:52:30;;;;;;;21.90;4.10;;;;;;;8.28;64.78;99628.70;67942;1275;1016352;-71
2024/02/02 05:55:32;;;;;;;18.70;3.60;;;;;;;8.34;64.27;99622.52;67944;1275;1016384;-71
2024/02/02 05:58:35;;;;;;;24.40;3.80;;;;;;;8.18;64.60;99634.14;67961;1275;1016311;-71
2024/02/02 06:01:37;;;;;;;27.20;4.50;;;;;;;8.18;64.56;99628.89;67962;1275;1016503;-71
2024/02/02 06:04:40;;;;;;;22.60;3.70;;;;;;;8.17;64.42;99629.30;68017;1275;1016325;-71
2024/02/02 06:07:43;;;;;;;32.60;4.70;;;;;;;8.28;63.90;99622.74;68013;1275;1016314;-72
2024/02/02 06:10:46;;;;;;;22.70;3.70;;;;;;;8.34;63.18;99626.53;68003;1275;1016471;-71
2024/02/02 06:13:48;;;;;;;27.10;3.90;;;;;;;8.17;63.74;99635.04;67952;1275;1018018;-72
2024/02/02 06:16:51;;;;;;;22.80;3.50;;;;;;;8.13;64.14;99637.61;68002;1275;1016612;-71
2024/02/02 06:19:53;;;;;;;23.50;4.10;;;;;;;8.15;63.93;99645.02;68024;1275;1016468;-71
2024/02/02 06:22:56;;;;;;;24.90;4.40;;;;;;;8.13;63.87;99644.77;68014;1275;1016336;-71
2024/02/02 06:25:58;;;;;;;27.20;4.00;;;;;;;7.98;64.70;99642.70;67994;1275;1016474;-71
2024/02/02 06:29:01;;;;;;;25.20;5.10;;;;;;;7.90;65.20;99643.00;67943;1275;1016424;-71
2024/02/02 06:32:03;;;;;;;29.90;4.70;;;;;;;7.80;65.50;99647.72;68018;1275;1016490;-71
2024/02/02 06:35:06;;;;;;;25.90;4.20;;;;;;;7.74;66.01;99650.73;67997;1275;1016503;-71
2024/02/02 06:38:08;;;;;;;24.10;4.20;;;;;;;7.73;66.18;99652.85;67996;1275;1016375;-69
2024/02/02 06:41:11;;;;;;;25.90;4.40;;;;;;;7.72;66.46;99655.52;67982;1275;1016505;-71
2024/02/02 06:44:14;;;;;;;;;;;;;;;7.72;66.46;99659.49;68018;1274;1016458;-71
2024/02/02 06:47:16;;;;;;;22.80;4.00;;;;;;;7.68;67.16;99661.73;68018;1275;1016377;-71
2024/02/02 06:50:19;;;;;;;23.60;4.00;;;;;;;7.71;67.01;99665.11;67966;1275;1018463;-71
2024/02/02 06:53:21;;;;;;;29.80;5.00;;;;;;;7.67;67.60;99667.86;67957;1274;1016461;-71
2024/02/02 06:56:24;;;;;;;22.60;4.90;;;;;;;7.71;67.60;99673.13;68019;1275;1016131;-71
2024/02/02 06:59:26;;;;;;;30.50;6.10;;;;;;;7.66;67.78;99676.23;68026;1275;1016425;-71
2024/02/02 07:02:30;;;;;;;26.60;5.50;;;;;;;7.66;68.01;99675.55;67974;1275;1016406;-72
2024/02/02 07:05:32;;;;;;;27.90;4.90;;;;;;;7.72;67.62;99668.36;68004;1275;1016127;-71
2024/02/02 07:08:35;;;;;;;27.50;4.90;;;;;;;7.70;67.70;99680.83;68009;1275;1016536;-72
2024/02/02 07:11:37;;;;;;;22.80;5.00;;;;;;;7.67;68.00;99684.05;67975;1275;1016326;-71
2024/02/02 07:14:40;;;;;;;30.00;6.00;;;;;;;7.70;67.91;99680.11;68028;1274;1018084;-72
2024/02/02 07:17:44;;;;;;;30.00;5.90;;;;;;;7.77;67.60;99679.33;68018;1274;1018532;-71
2024/02/02 07:20:47;;;;;;;27.00;4.80;;;;;;;7.84;67.23;99683.79;67995;1274;1016197;-72
2024/02/02 07:23:49;;;;;;;29.30;4.50;;;;;;;7.89;66.88;99688.48;68009;1275;1016438;-71
2024/02/02 07:26:53;;;;;;;29.30;4.60;;;;;;;7.76;67.41;99684.25;68041;1274;1016418;-72
2024/02/02 07:29:56;;;;;;;22.80;4.00;;;;;;;7.72;67.85;99686.48;68016;1275;1016311;-71
2024/02/02 07:32:58;;;;;;;26.40;4.60;;;;;;;7.92;66.69;99687.86;68001;1275;1017017;-71
2024/02/02 07:36:01;;;;;;;29.40;5.20;;;;;;;8.03;66.24;99690.96;68003;1274;1019602;-71
2024/02/02 07:39:04;;;;;;;;;;;;;;;8.05;66.22;99696.98;68063;1275;1016525;-71
2024/02/02 07:42:06;;;;;;;24.90;4.30;;;;;;;8.05;66.21;99697.67;68018;1275;1016207;-71
2024/02/02 07:45:09;;;;;;;32.20;4.40;;;;;;;8.12;66.44;99699.86;67993;1275;1016463;-71
2024/02/02 07:48:12;;;;;;;30.90;5.20;;;;;;;8.18;66.38;99693.73;68027;1275;1016241;-70
2024/02/02 07:51:15;;;;;;;26.60;5.00;;;;;;;8.18;66.60;99704.31;68016;1274;1016863;-71
2024/02/02 07:54:18;;;;;;;28.70;5.30;;;;;;;8.20;66.44;99705.46;67966;1275;1017318;-71
2024/02/02 07:57:20;;;;;;;32.10;5.50;;;;;;;8.21;66.62;99703.19;68022;1275;1016153;-70
2024/02/02 08:00:23;;;;;;;34.00;6.10;;;;;;;8.36;65.81;99708.36;68016;1275;1016362;-70
2024/02/02 08:03:25;;;;;;;35.60;6.20;;;;;;;8.43;65.50;99712.64;67977;1275;1016490;-68
2024/02/02 08:06:28;;;;;;;26.10;5.00;;;;;;;8.48;65.30;99716.30;68021;1275;1016516;-72
2024/02/02 08:09:30;;;;;;;29.70;5.20;;;;;;;8.49;64.44;99717.34;68037;1275;1016511;-72
2024/02/02 08:12:33;;;;;;;25.40;4.80;;;;;;;8.55;63.96;99724.58;68004;1275;1016366;-71
2024/02/02 08:15:36;;;;;;;27.60;4.30;;;;;;;8.70;64.01;99717.40;67974;1275;1016008;-71
2024/02/02 08:18:39;;;;;;;26.10;4.80;;;;;;;8.83;63.36;99717.57;68008;1275;1016499;-71
2024/02/02 08:21:41;;;;;;;25.90;5.10;;;;;;;9.05;61.74;99720.17;67969;1275;1016230;-71
2024/02/02 08:24:44;;;;;;;36.10;6.70;;;;;;;9.23;61.54;99717.71;67982;1275;1016783;-71
2024/02/02 08:27:46;;;;;;;28.60;5.00;;;;;;;9.32;62.02;99717.54;68001;1275;1016388;-71
2024/02/02 08:30:49;;;;;;;28.30;4.70;;;;;;;9.37;61.18;99721.70;68013;1275;1016685;-71
2024/02/02 08:33:52;;;;;;;23.60;5.10;;;;;;;9.32;60.53;99720.30;67974;1275;1016344;-72
2024/02/02 08:36:54;;;;;;;28.10;5.80;;;;;;;9.10;60.79;99724.20;68019;1275;1016147;-71
2024/02/02 08:39:57;;;;;;;;;;;;;;;8.98;61.18;99722.90;68065;1275;1018989;-70
2024/02/02 08:43:00;;;;;;;26.20;4.30;;;;;;;9.03;60.66;99732.33;68015;1260;1016419;-71
2024/02/02 08:46:02;;;;;;;20.90;3.80;;;;;;;9.13;60.08;99732.61;68011;1275;1016470;-69
2024/02/02 08:49:05;;;;;;;31.60;5.00;;;;;;;9.04;60.24;99734.54;67975;1275;1016337;-72
2024/02/02 08:52:08;;;;;;;;;;;;;;;9.06;60.00;99741.27;67939;1275;1016474;-72
2024/02/02 08:55:11;;;;;;;26.80;4.30;;;;;;;8.94;60.03;99739.97;67998;1275;1016466;-71
2024/02/02 08:58:15;;;;;;;26.00;5.00;;;;;;;9.09;60.46;99739.05;67990;1275;1016391;-71
2024/02/02 09:01:18;;;;;;;26.40;4.40;;;;;;;9.17;59.61;99734.02;67991;1275;1020010;-72
2024/02/02 09:04:20;;;;;;;26.60;4.40;;;;;;;9.22;59.73;99732.43;68016;1275;1016654;-72
2024/02/02 09:07:23;;;;;;;29.00;5.80;;;;;;;9.26;59.25;99731.55;68026;1275;1015740;-71
2024/02/02 09:10:25;;;;;;;29.00;4.60;;;;;;;9.17;58.39;99735.21;68010;1274;1016399;-71
2024/02/02 09:13:28;;;;;;;25.90;5.10;;;;;;;9.33;58.90;99728.13;67993;1275;1016420;-71
2024/02/02 09:16:30;;;;;;;30.50;5.50;;;;;;;9.30;57.98;99729.66;68028;1275;1016285;-71
2024/02/02 09:19:33;;;;;;;27.10;5.30;;;;;;;9.21;59.20;99732.10;68062;1275;1016461;-71
2024/02/02 09:22:36;;;;;;;30.60;4.60;;;;;;;9.29;58.79;99733.00;68017;1275;1016500;-70
2024/02/02 09:25:38;;;;;;;29.10;5.20;;;;;;;9.52;58.43;99729.98;68009;1275;1016402;-71
2024/02/02 09:28:41;;;;;;;25.20;5.00;;;;;;;9.63;57.28;99729.66;68019;1275;1016362;-71
2024/02/02 09:31:43;;;;;;;27.50;4.80;;;;;;;9.65;56.82;99734.98;68017;1275;1016381;-71
2024/02/02 09:34:46;;;;;;;28.10;4.70;;;;;;;9.78;57.06;99733.73;68011;1275;1018102;-69
2024/02/02 09:37:49;;;;;;;25.60;5.50;;;;;;;9.82;55.97;99730.08;68030;1275;1019785;-71
2024/02/02 09:40:52;;;;;;;29.30;4.80;;;;;;;9.85;56.50;99732.02;67987;1275;1016526;-71
2024/02/02 09:43:55;;;;;;;26.20;4.80;;;;;;;10.01;55.70;99735.55;68042;1275;1016251;-71
2024/02/02 09:46:57;;;;;;;31.30;5.20;;;;;;;10.18;54.75;99731.66;68036;1275;1016491;-71
2024/02/02 09:50:00;;;;;;;23.70;4.40;;;;;;;10.24;54.64;99736.08;67988;1275;1016441;-71
2024/02/02 09:53:04;;;;;;;34.10;4.90;;;;;;;10.07;53.54;99737.90;68030;1275;1016439;-71
2024/02/02 09:56:07;;;;;;;28.30;5.40;;;;;;;10.11;53.85;99731.29;68068;1253;1016451;-71
2024/02/02 09:59:09;;;;;;;24.80;4.50;;;;;;;10.07;53.30;99737.03;68028;1274;1016471;-71
2024/02/02 10:02:12;;;;;;;32.20;5.60;;;;;;;10.11;53.41;99729.34;67980;1275;1016440;-71
2024/02/02 10:05:14;;;;;;;27.80;4.40;;;;;;;10.07;54.04;99724.77;68030;1275;1017998;-71
2024/02/02 10:08:17;;;;;;;;;;;;;;;10.28;53.97;99723.71;68045;1275;1017369;-70
2024/02/02 10:11:20;;;;;;;29.80;4.60;;;;;;;10.39;52.69;99733.89;68016;1275;1016062;-71
2024/02/02 10:14:22;;;;;;;29.90;4.40;;;;;;;10.36;51.34;99734.53;68004;1275;1016473;-71
2024/02/02 10:17:25;;;;;;;29.40;4.20;;;;;;;10.31;51.80;99735.09;68055;1275;1016466;-71
2024/02/02 10:20:28;;;;;;;26.00;3.80;;;;;;;10.60;51.06;99720.50;68073;1275;1016293;-70
2024/02/02 10:23:30;;;;;;;19.00;3.50;;;;;;;10.81;50.41;99719.52;68008;1275;1018170;-68
2024/02/02 10:26:33;;;;;;;29.30;4.20;;;;;;;10.74;49.76;99728.39;68032;1275;1016341;-69
2024/02/02 10:29:37;;;;;;;25.60;3.80;;;;;;;10.85;48.50;99719.64;68021;1275;1016338;-70
2024/02/02 10:32:40;;;;;;;23.80;4.10;;;;;;;10.79;48.81;99718.55;67996;1274;1016438;-71
2024/02/02 10:35:44;;;;;;;;;;;;;;;10.98;48.78;99710.64;68012;1275;1016442;-70
2024/02/02 10:38:46;;;;;;;27.60;4.00;;;;;;;11.10;48.91;99710.23;67977;1275;1016434;-70
2024/02/02 10:41:49;;;;;;;26.30;4.40;;;;;;;10.92;47.98;99704.81;68026;1274;1016025;-71
2024/02/02 10:44:51;;;;;;;24.10;4.70;;;;;;;10.88;47.83;99694.86;68037;1274;1016685;-71
2024/02/02 10:47:54;;;;;;;27.10;4.40;;;;;;;10.78;48.36;99710.73;68062;1275;1016442;-72
2024/02/02 10:50:56;;;;;;;22.20;4.40;;;;;;;10.85;47.92;99689.77;67982;1275;1016494;-71
2024/02/02 10:53:59;;;;;;;28.20;4.70;;;;;;;11.03;49.22;99678.04;68000;1275;1016370;-71
2024/02/02 10:57:03;;;;;;;26.00;3.90;;;;;;;11.01;47.93;99679.88;68050;1274;1016446;-71
2024/02/02 11:00:10;;;;;;;31.80;4.10;;;;;;;11.15;47.90;99674.14;68061;1274;1016098;-71
2024/02/02 11:03:12;;;;;;;24.80;4.40;;;;;;;11.12;47.60;99677.10;68016;1275;1016293;-71
2024/02/02 11:06:15;;;;;;;22.40;3.60;;;;;;;11.29;48.25;99668.68;68057;1275;1016420;-71
2024/02/02 11:09:17;;;;;;;24.20;4.20;;;;;;;11.36;48.01;99665.52;68048;1275;1015978;-71
2024/02/02 11:12:20;;;;;;;27.70;4.20;;;;;;;11.44;48.39;99658.30;68005;1275;1016357;-71
2024/02/02 11:15:22;;;;;;;21.90;3.80;;;;;;;11.28;47.58;99655.78;68006;1274;1016378;-71
2024/02/02 11:18:25;;;;;;;22.80;3.80;;;;;;;11.05;47.00;99649.75;68040;1274;1016321;-68
2024/02/02 11:21:28;;;;;;;31.10;5.20;;;;;;;10.94;47.27;99649.95;68024;1274;1016341;-71
2024/02/02 11:24:30;;;;;;;26.30;4.10;;;;;;;11.16;47.58;99634.36;67986;1253;1016425;-71
2024/02/02 11:27:33;;;;;;;22.60;4.10;;;;;;;11.26;47.37;99627.55;68007;1275;1016137;-71
2024/02/02 11:30:35;;;;;;;24.80;4.00;;;;;;;11.22;46.27;99641.20;68046;1274;1016245;-71
2024/02/02 11:33:38;;;;;;;24.50;3.90;;;;;;;11.29;45.80;99641.23;68054;1275;1016425;-71
2024/02/02 11:36:40;;;;;;;25.80;3.90;;;;;;;11.53;46.19;99639.12;68000;1274;1018194;-71
2024/02/02 11:39:43;;;;;;;26.40;4.20;;;;;;;11.75;45.84;99641.61;67992;1275;1016422;-71
2024/02/02 11:42:45;;;;;;;26.90;4.90;;;;;;;11.99;47.04;99640.89;68027;1274;1016456;-71
2024/02/02 11:45:48;;;;;;;32.70;7.00;;;;;;;12.01;46.36;99638.03;68039;1275;1016314;-71
2024/02/02 11:48:50;;;;;;;29.10;6.80;;;;;;;11.97;46.82;99636.98;68012;1275;1016206;-71
2024/02/02 11:51:53;;;;;;;22.40;3.80;;;;;;;11.91;46.82;99638.50;67994;1275;1016235;-71
2024/02/02 11:54:55;;;;;;;25.50;4.30;;;;;;;11.66;46.72;99642.64;68035;1275;1016633;-71
2024/02/02 11:57:58;;;;;;;24.00;3.70;;;;;;;11.51;47.57;99635.87;68047;1275;1016534;-71
2024/02/02 12:01:00;;;;;;;22.00;4.30;;;;;;;11.38;47.08;99630.79;68034;1275;1016456;-71
2024/02/02 12:04:04;;;;;;;26.80;4.50;;;;;;;11.33;47.62;99628.39;68004;1275;1016599;-71
2024/02/02 12:07:07;;;;;;;21.40;4.70;;;;;;;11.48;48.39;99624.14;67971;1275;1016763;-71
2024/02/02 12:10:09;;;;;;;21.60;4.40;;;;;;;11.58;48.20;99618.36;68035;1275;1018452;-71
2024/02/02 12:13:12;;;;;;;24.20;3.80;;;;;;;11.67;47.45;99623.50;68061;1275;1016564;-71
2024/02/02 12:16:14;;;;;;;25.40;4.50;;;;;;;11.65;47.04;99616.23;68010;1275;1016185;-72
2024/02/02 12:19:17;;;;;;;25.50;4.30;;;;;;;11.77;47.65;99616.64;68031;1274;1015965;-69
2024/02/02 12:22:20;;;;;;;31.20;4.20;;;;;;;11.76;47.10;99608.28;68054;1274;1018890;-71
2024/02/02 12:25:24;;;;;;;23.90;4.70;;;;;;;11.83;46.45;99610.73;68006;1275;1016468;-71
2024/02/02 12:28:27;;;;;;;27.50;5.00;;;;;;;12.21;46.33;99600.27;67993;1275;1018397;-71
2024/02/02 12:31:30;;;;;;;29.70;4.90;;;;;;;12.29;44.99;99602.13;68014;1275;1016909;-71
2024/02/02 12:34:32;;;;;;;26.30;5.70;;;;;;;12.14;45.12;99595.60;68023;1275;1016428;-71
2024/02/02 12:37:35;;;;;;;26.80;4.80;;;;;;;12.09;45.17;99593.09;67985;1275;1016276;-71
2024/02/02 12:40:37;;;;;;;26.80;4.80;;;;;;;11.92;45.69;99582.02;67954;1275;1016307;-71
2024/02/02 12:43:40;;;;;;;25.30;5.00;;;;;;;11.94;46.28;99577.71;68042;1275;1017690;-71
2024/02/02 12:46:44;;;;;;;25.10;4.80;;;;;;;11.99;46.10;99577.52;67964;1275;1016398;-71
2024/02/02 12:49:47;;;;;;;21.00;4.10;;;;;;;12.01;45.73;99572.95;68017;1275;1016247;-71
2024/02/02 12:52:53;;;;;;;26.60;4.50;;;;;;;12.22;45.06;99568.30;68038;1259;1016369;-71
2024/02/02 12:55:56;;;;;;;25.10;4.50;;;;;;;12.28;45.08;99562.21;68041;1275;1016442;-71
2024/02/02 12:58:59;;;;;;;25.10;4.70;;;;;;;12.18;44.65;99566.23;68040;1275;1015901;-72
2024/02/02 13:02:01;;;;;;;29.10;4.70;;;;;;;12.10;44.88;99552.84;68003;1275;1018524;-71
2024/02/02 13:05:10;;;;;;;23.90;4.90;;;;;;;12.02;44.87;99555.73;68043;1275;1016370;-68
2024/02/02 13:08:13;;;;;;;24.80;5.10;;;;;;;12.06;44.73;99548.52;68051;1275;1017272;-70
2024/02/02 13:11:18;;;;;;;26.00;5.90;;;;;;;12.11;45.14;99540.67;68021;1275;1017000;-69
2024/02/02 13:14:20;;;;;;;28.70;6.60;;;;;;;12.30;45.12;99533.88;68083;1275;1016430;-71
2024/02/02 13:17:23;;;;;;;28.40;5.40;;;;;;;12.47;45.11;99517.61;68062;1275;1016463;-71
2024/02/02 13:20:26;;;;;;;27.60;6.50;;;;;;;12.57;44.74;99514.96;68014;1275;1016396;-71
2024/02/02 13:23:29;;;;;;;26.70;5.50;;;;;;;12.67;44.76;99510.71;68025;1275;1016680;-70
2024/02/02 13:26:31;;;;;;;24.20;5.50;;;;;;;12.75;44.94;99498.98;68041;1275;1015881;-71
2024/02/02 13:29:34;;;;;;;25.00;5.70;;;;;;;12.74;44.21;99497.98;68030;1275;1015956;-71
2024/02/02 13:32:38;;;;;;;26.40;6.50;;;;;;;12.90;44.43;99495.13;68058;1275;1016446;-71
2024/02/02 13:35:46;;;;;;;26.50;5.90;;;;;;;12.88;44.62;99499.09;68036;1275;1016144;-71
2024/02/02 13:38:49;;;;;;;26.30;5.40;;;;;;;12.83;44.27;99499.41;68070;1275;1016417;-70
2024/02/02 13:41:52;;;;;;;23.20;5.00;;;;;;;12.51;43.68;99502.65;67977;1275;1016665;-72
2024/02/02 13:44:55;;;;;;;27.60;5.60;;;;;;;12.34;43.66;99515.91;68077;1275;1016476;-71
2024/02/02 13:47:59;;;;;;;24.70;5.90;;;;;;;12.19;44.50;99513.80;68037;1274;1016133;-71
2024/02/02 13:51:02;;;;;;;32.90;6.40;;;;;;;12.23;44.38;99513.92;67995;1274;1016008;-71
2024/02/02 13:54:08;;;;;;;28.90;6.00;;;;;;;12.29;44.39;99505.69;68054;1274;1016123;-71
2024/02/02 13:57:10;;;;;;;58.70;18.50;;;;;;;12.35;43.99;99509.40;68036;1274;1016450;-71
2024/02/02 14:00:13;;;;;;;40.30;12.20;;;;;;;12.18;44.21;99510.17;68008;1274;1016699;-70